<?xml version='1.0' encoding='UTF-8'?>
<gpx xmlns="http://www.topografix.com/GPX/1/1" creator="www.balnam.be" version="1.1" xmlns:xsi="http://www.w3.org/2001/XMLSchema-instance" xsi:schemaLocation="http://www.topografix.com/GPX/1/1 http://www.topografix.com/GPX/1/1/gpx.xsd">
<trk>
<name>lamami1</name>
<cmt>v</cmt>
<desc>Amay Sentier n°i1 </desc>
<link href="https://chemins.be/amay/sentier/i1"/><trkseg>
<trkpt lat="50.539353" lon="5.323486"><time>2026-05-02T19:22:50Z</time></trkpt>
<trkpt lat="50.539268" lon="5.322906"><time>2026-05-02T19:32:50Z</time></trkpt>
<trkpt lat="50.539351" lon="5.322597"><time>2026-05-02T19:42:50Z</time></trkpt>
<trkpt lat="50.539086" lon="5.322056"><time>2026-05-02T19:52:50Z</time></trkpt>
<trkpt lat="50.538865" lon="5.321628"><time>2026-05-02T20:02:50Z</time></trkpt>
<trkpt lat="50.538696" lon="5.321427"><time>2026-05-02T20:12:50Z</time></trkpt>
<trkpt lat="50.538509" lon="5.321113"><time>2026-05-02T20:22:50Z</time></trkpt>
<trkpt lat="50.537720" lon="5.319828"><time>2026-05-02T20:32:50Z</time></trkpt>
<trkpt lat="50.537438" lon="5.319145"><time>2026-05-02T20:42:50Z</time></trkpt>
<trkpt lat="50.537412" lon="5.318975"><time>2026-05-02T20:52:50Z</time></trkpt>
<trkpt lat="50.537449" lon="5.318806"><time>2026-05-02T21:02:50Z</time></trkpt>
<trkpt lat="50.537504" lon="5.318681"><time>2026-05-02T21:12:50Z</time></trkpt>
<trkpt lat="50.537614" lon="5.318513"><time>2026-05-02T21:22:50Z</time></trkpt>
<trkpt lat="50.537785" lon="5.318404"><time>2026-05-02T21:32:50Z</time></trkpt>
<trkpt lat="50.538328" lon="5.317949"><time>2026-05-02T21:42:50Z</time></trkpt>
<trkpt lat="50.538582" lon="5.317715"><time>2026-05-02T21:52:50Z</time></trkpt>
<trkpt lat="50.538807" lon="5.317649"><time>2026-05-02T22:02:50Z</time></trkpt>
<trkpt lat="50.538980" lon="5.317384"><time>2026-05-02T22:12:50Z</time></trkpt>
<trkpt lat="50.539208" lon="5.317050"><time>2026-05-02T22:22:50Z</time></trkpt>
<trkpt lat="50.539307" lon="5.317010"><time>2026-05-02T22:32:50Z</time></trkpt>
<trkpt lat="50.539759" lon="5.316751"><time>2026-05-02T22:42:50Z</time></trkpt>
<trkpt lat="50.539896" lon="5.316485"><time>2026-05-02T22:52:50Z</time></trkpt>
<trkpt lat="50.540040" lon="5.316418"><time>2026-05-02T23:02:50Z</time></trkpt>
<trkpt lat="50.540265" lon="5.316422"><time>2026-05-02T23:12:50Z</time></trkpt>
<trkpt lat="50.540427" lon="5.316327"><time>2026-05-02T23:22:50Z</time></trkpt>
<trkpt lat="50.540760" lon="5.316404"><time>2026-05-02T23:32:50Z</time></trkpt>
<trkpt lat="50.540950" lon="5.316253"><time>2026-05-02T23:42:50Z</time></trkpt>
<trkpt lat="50.541213" lon="5.315919"><time>2026-05-02T23:52:50Z</time></trkpt>
<trkpt lat="50.541269" lon="5.315723"><time>2026-05-03T00:02:50Z</time></trkpt>
<trkpt lat="50.541388" lon="5.315387"><time>2026-05-03T00:12:50Z</time></trkpt>
<trkpt lat="50.541633" lon="5.315095"><time>2026-05-03T00:22:50Z</time></trkpt>
<trkpt lat="50.541959" lon="5.314805"><time>2026-05-03T00:32:50Z</time></trkpt>
<trkpt lat="50.542068" lon="5.314737"><time>2026-05-03T00:42:50Z</time></trkpt>
<trkpt lat="50.542185" lon="5.314739"><time>2026-05-03T00:52:50Z</time></trkpt>
<trkpt lat="50.542318" lon="5.314897"><time>2026-05-03T01:02:50Z</time></trkpt>
<trkpt lat="50.542442" lon="5.315140"><time>2026-05-03T01:12:50Z</time></trkpt>
<trkpt lat="50.542495" lon="5.315296"><time>2026-05-03T01:22:50Z</time></trkpt>
<trkpt lat="50.542502" lon="5.315550"><time>2026-05-03T01:32:50Z</time></trkpt>
<trkpt lat="50.542446" lon="5.315789"><time>2026-05-03T01:42:50Z</time></trkpt>
<trkpt lat="50.542354" lon="5.315999"><time>2026-05-03T01:52:50Z</time></trkpt>
<trkpt lat="50.542080" lon="5.316572"><time>2026-05-03T02:02:50Z</time></trkpt>
<trkpt lat="50.541824" lon="5.317117"><time>2026-05-03T02:12:50Z</time></trkpt>
<trkpt lat="50.541831" lon="5.317328"><time>2026-05-03T02:22:50Z</time></trkpt>
<trkpt lat="50.541892" lon="5.317541"><time>2026-05-03T02:32:50Z</time></trkpt>
<trkpt lat="50.542067" lon="5.318095"><time>2026-05-03T02:42:50Z</time></trkpt>
<trkpt lat="50.542159" lon="5.318943"><time>2026-05-03T02:52:50Z</time></trkpt>
<trkpt lat="50.542167" lon="5.319155"><time>2026-05-03T03:02:50Z</time></trkpt>
<trkpt lat="50.542172" lon="5.319607"><time>2026-05-03T03:12:50Z</time></trkpt>
<trkpt lat="50.542357" lon="5.320020"><time>2026-05-03T03:22:50Z</time></trkpt>
<trkpt lat="50.542536" lon="5.320221"><time>2026-05-03T03:32:50Z</time></trkpt>
<trkpt lat="50.542705" lon="5.320351"><time>2026-05-03T03:42:50Z</time></trkpt>
<trkpt lat="50.542892" lon="5.320623"><time>2026-05-03T03:52:50Z</time></trkpt>
<trkpt lat="50.543177" lon="5.320953"><time>2026-05-03T04:02:50Z</time></trkpt>
<trkpt lat="50.543257" lon="5.321068"><time>2026-05-03T04:12:50Z</time></trkpt>
<trkpt lat="50.543346" lon="5.321197"><time>2026-05-03T04:22:50Z</time></trkpt>
<trkpt lat="50.543389" lon="5.321353"><time>2026-05-03T04:32:50Z</time></trkpt>
<trkpt lat="50.543423" lon="5.321678"><time>2026-05-03T04:42:50Z</time></trkpt>
<trkpt lat="50.543426" lon="5.322341"><time>2026-05-03T04:52:50Z</time></trkpt>
<trkpt lat="50.543460" lon="5.322596"><time>2026-05-03T05:02:50Z</time></trkpt>
<trkpt lat="50.543458" lon="5.322821"><time>2026-05-03T05:12:50Z</time></trkpt>
<trkpt lat="50.543439" lon="5.322948"><time>2026-05-03T05:22:50Z</time></trkpt>
<trkpt lat="50.543438" lon="5.323146"><time>2026-05-03T05:32:50Z</time></trkpt>
<trkpt lat="50.543418" lon="5.323413"><time>2026-05-03T05:42:50Z</time></trkpt>
<trkpt lat="50.543380" lon="5.323554"><time>2026-05-03T05:52:50Z</time></trkpt>
<trkpt lat="50.543190" lon="5.323705"><time>2026-05-03T06:02:50Z</time></trkpt>
<trkpt lat="50.542919" lon="5.323897"><time>2026-05-03T06:12:50Z</time></trkpt>
<trkpt lat="50.542801" lon="5.323993"><time>2026-05-03T06:22:50Z</time></trkpt>
<trkpt lat="50.542790" lon="5.324233"><time>2026-05-03T06:32:50Z</time></trkpt>
<trkpt lat="50.542833" lon="5.324544"><time>2026-05-03T06:42:50Z</time></trkpt>
<trkpt lat="50.542877" lon="5.324630"><time>2026-05-03T06:52:50Z</time></trkpt>
</trkseg>
</trk>
</gpx>